sensor_id;sensor_type;location;lat;lon;timestamp;pressure;altitude;pressure_sealevel;temperature;humidity
75717;BME280;64333;50.138;14.332;2023-02-05T00:02:16;100126.88;;;20.71;52.44
75717;BME280;64333;50.138;14.332;2023-02-05T00:04:42;100127.81;;;20.70;52.33
75717;BME280;64333;50.138;14.332;2023-02-05T00:07:07;100127.22;;;20.65;52.36
75717;BME280;64333;50.138;14.332;2023-02-05T00:09:33;100123.41;;;20.70;52.41
75717;BME280;64333;50.138;14.332;2023-02-05T00:11:58;100117.38;;;20.68;52.00
75717;BME280;64333;50.138;14.332;2023-02-05T00:14:24;100116.63;;;20.66;52.44
75717;BME280;64333;50.138;14.332;2023-02-05T00:16:51;100115.09;;;20.62;52.55
75717;BME280;64333;50.138;14.332;2023-02-05T00:19:17;100122.72;;;20.67;52.53
75717;BME280;64333;50.138;14.332;2023-02-05T00:21:42;100126.28;;;20.66;52.17
75717;BME280;64333;50.138;14.332;2023-02-05T00:24:08;100122.91;;;20.64;52.80
75717;BME280;64333;50.138;14.332;2023-02-05T00:26:34;100124.75;;;20.62;52.65
75717;BME280;64333;50.138;14.332;2023-02-05T00:28:59;100117.72;;;20.62;52.50
75717;BME280;64333;50.138;14.332;2023-02-05T00:31:25;100115.19;;;20.61;52.77
75717;BME280;64333;50.138;14.332;2023-02-05T00:33:51;100123.06;;;20.61;52.25
75717;BME280;64333;50.138;14.332;2023-02-05T00:36:18;100122.13;;;20.62;52.64
75717;BME280;64333;50.138;14.332;2023-02-05T00:38:44;100123.81;;;20.63;52.22
75717;BME280;64333;50.138;14.332;2023-02-05T00:41:10;100119.50;;;20.62;52.55
75717;BME280;64333;50.138;14.332;2023-02-05T00:43:37;100120.88;;;20.53;53.14
75717;BME280;64333;50.138;14.332;2023-02-05T00:46:02;100107.63;;;20.55;52.81
75717;BME280;64333;50.138;14.332;2023-02-05T00:48:28;100105.00;;;20.55;52.76
75717;BME280;64333;50.138;14.332;2023-02-05T00:50:53;100105.13;;;20.53;52.45
75717;BME280;64333;50.138;14.332;2023-02-05T00:53:20;100101.63;;;20.53;52.75
75717;BME280;64333;50.138;14.332;2023-02-05T00:55:47;100105.34;;;20.49;52.65
75717;BME280;64333;50.138;14.332;2023-02-05T00:58:12;100101.81;;;20.50;52.31
75717;BME280;64333;50.138;14.332;2023-02-05T01:00:38;100110.59;;;20.49;52.69
75717;BME280;64333;50.138;14.332;2023-02-05T01:03:03;100117.72;;;20.47;52.51
75717;BME280;64333;50.138;14.332;2023-02-05T01:05:29;100115.09;;;20.47;52.55
75717;BME280;64333;50.138;14.332;2023-02-05T01:07:55;100114.34;;;20.45;52.99
75717;BME280;64333;50.138;14.332;2023-02-05T01:10:21;100116.97;;;20.45;52.60
75717;BME280;64333;50.138;14.332;2023-02-05T01:12:48;100117.91;;;20.44;52.64
75717;BME280;64333;50.138;14.332;2023-02-05T01:15:13;100113.72;;;20.40;53.04
75717;BME280;64333;50.138;14.332;2023-02-05T01:17:39;100110.16;;;20.41;52.99
75717;BME280;64333;50.138;14.332;2023-02-05T01:20:05;100106.88;;;20.37;52.51
75717;BME280;64333;50.138;14.332;2023-02-05T01:22:31;100114.75;;;20.37;53.00
75717;BME280;64333;50.138;14.332;2023-02-05T01:24:57;100111.09;;;20.40;52.53
75717;BME280;64333;50.138;14.332;2023-02-05T01:27:22;100106.78;;;20.39;52.43
75717;BME280;64333;50.138;14.332;2023-02-05T01:29:49;100109.41;;;20.39;52.68
75717;BME280;64333;50.138;14.332;2023-02-05T01:32:14;100100.78;;;20.37;52.98
75717;BME280;64333;50.138;14.332;2023-02-05T01:34:40;100111.38;;;20.35;52.54
75717;BME280;64333;50.138;14.332;2023-02-05T01:37:05;100106.94;;;20.36;53.00
75717;BME280;64333;50.138;14.332;2023-02-05T01:39:31;100099.94;;;20.36;52.65
75717;BME280;64333;50.138;14.332;2023-02-05T01:41:56;100111.44;;;20.34;53.05
75717;BME280;64333;50.138;14.332;2023-02-05T01:44:22;100112.38;;;20.33;52.57
75717;BME280;64333;50.138;14.332;2023-02-05T01:46:53;100110.69;;;20.32;52.46
75717;BME280;64333;50.138;14.332;2023-02-05T01:49:40;100105.50;;;20.30;52.90
75717;BME280;64333;50.138;14.332;2023-02-05T01:52:11;100115.94;;;20.32;52.66
75717;BME280;64333;50.138;14.332;2023-02-05T01:54:40;100115.94;;;20.32;52.88
75717;BME280;64333;50.138;14.332;2023-02-05T01:57:10;100105.44;;;20.32;52.84
75717;BME280;64333;50.138;14.332;2023-02-05T01:59:40;100106.38;;;20.31;52.57
75717;BME280;64333;50.138;14.332;2023-02-05T02:02:06;100104.75;;;20.28;52.60
75717;BME280;64333;50.138;14.332;2023-02-05T02:04:43;100110.84;;;20.29;53.10
75717;BME280;64333;50.138;14.332;2023-02-05T02:07:19;100099.56;;;20.27;52.70
75717;BME280;64333;50.138;14.332;2023-02-05T02:09:47;100082.41;;;20.21;53.07
75717;BME280;64333;50.138;14.332;2023-02-05T02:12:22;100089.16;;;20.25;53.00
75717;BME280;64333;50.138;14.332;2023-02-05T02:14:52;100091.09;;;20.22;53.23
75717;BME280;64333;50.138;14.332;2023-02-05T02:17:19;100091.88;;;20.24;53.13
75717;BME280;64333;50.138;14.332;2023-02-05T02:20:00;100084.91;;;20.23;53.06
75717;BME280;64333;50.138;14.332;2023-02-05T02:25:51;100086.78;;;20.21;52.99
75717;BME280;64333;50.138;14.332;2023-02-05T02:28:33;100083.34;;;20.20;52.98
75717;BME280;64333;50.138;14.332;2023-02-05T02:31:08;100069.34;;;20.20;52.67
75717;BME280;64333;50.138;14.332;2023-02-05T02:33:42;100068.59;;;20.18;52.96
75717;BME280;64333;50.138;14.332;2023-02-05T02:38:48;100057.41;;;20.14;52.68
75717;BME280;64333;50.138;14.332;2023-02-05T02:41:27;100060.03;;;20.14;52.88
75717;BME280;64333;50.138;14.332;2023-02-05T02:43:58;100061.72;;;20.15;52.69
75717;BME280;64333;50.138;14.332;2023-02-05T02:47:00;100056.47;;;20.15;53.05
75717;BME280;64333;50.138;14.332;2023-02-05T02:49:29;100060.88;;;20.15;52.67
75717;BME280;64333;50.138;14.332;2023-02-05T02:51:57;100060.13;;;20.13;53.13
75717;BME280;64333;50.138;14.332;2023-02-05T02:54:26;100054.78;;;20.14;53.05
75717;BME280;64333;50.138;14.332;2023-02-05T02:56:53;100056.56;;;20.14;52.96
75717;BME280;64333;50.138;14.332;2023-02-05T02:59:23;100048.69;;;20.14;53.32
75717;BME280;64333;50.138;14.332;2023-02-05T03:01:53;100044.44;;;20.11;52.81
75717;BME280;64333;50.138;14.332;2023-02-05T03:04:31;100048.88;;;20.11;52.59
75717;BME280;64333;50.138;14.332;2023-02-05T03:07:04;100045.47;;;20.09;52.66
75717;BME280;64333;50.138;14.332;2023-02-05T03:09:39;100043.63;;;20.11;52.72
75717;BME280;64333;50.138;14.332;2023-02-05T03:12:07;100045.31;;;20.12;53.10
75717;BME280;64333;50.138;14.332;2023-02-05T03:14:32;100045.38;;;20.10;52.82
75717;BME280;64333;50.138;14.332;2023-02-05T03:16:59;100035.81;;;20.09;52.66
75717;BME280;64333;50.138;14.332;2023-02-05T03:19:24;100027.09;;;20.09;52.77
75717;BME280;64333;50.138;14.332;2023-02-05T03:21:54;100030.56;;;20.09;52.88
75717;BME280;64333;50.138;14.332;2023-02-05T03:24:21;100023.72;;;20.07;52.81
75717;BME280;64333;50.138;14.332;2023-02-05T03:26:46;100028.03;;;20.08;53.05
75717;BME280;64333;50.138;14.332;2023-02-05T03:29:13;100026.25;;;20.08;52.81
75717;BME280;64333;50.138;14.332;2023-02-05T03:31:56;100024.66;;;20.06;52.92
75717;BME280;64333;50.138;14.332;2023-02-05T03:45:37;100039.59;;;20.04;52.74
75717;BME280;64333;50.138;14.332;2023-02-05T03:48:32;100040.44;;;20.04;53.04
75717;BME280;64333;50.138;14.332;2023-02-05T03:56:22;100033.50;;;20.03;52.72
75717;BME280;64333;50.138;14.332;2023-02-05T03:58:52;100033.56;;;20.02;52.54
75717;BME280;64333;50.138;14.332;2023-02-05T04:01:18;100029.19;;;20.02;52.49
75717;BME280;64333;50.138;14.332;2023-02-05T04:03:44;100031.88;;;20.01;52.58
75717;BME280;64333;50.138;14.332;2023-02-05T04:06:10;100036.38;;;19.99;52.88
75717;BME280;64333;50.138;14.332;2023-02-05T04:08:36;100028.50;;;19.99;52.51
75717;BME280;64333;50.138;14.332;2023-02-05T04:11:01;100027.75;;;19.97;52.60
75717;BME280;64333;50.138;14.332;2023-02-05T04:13:26;100030.38;;;19.97;52.21
75717;BME280;64333;50.138;14.332;2023-02-05T04:15:52;100026.97;;;19.95;52.01
75717;BME280;64333;50.138;14.332;2023-02-05T04:18:17;100029.50;;;19.96;52.19
75717;BME280;64333;50.138;14.332;2023-02-05T04:20:43;100040.00;;;19.96;52.61
75717;BME280;64333;50.138;14.332;2023-02-05T04:23:09;100040.88;;;19.97;52.27
75717;BME280;64333;50.138;14.332;2023-02-05T04:25:38;100039.31;;;19.93;52.00
75717;BME280;64333;50.138;14.332;2023-02-05T04:28:04;100057.69;;;19.93;52.31
75717;BME280;64333;50.138;14.332;2023-02-05T04:30:31;100061.31;;;19.90;52.02
75717;BME280;64333;50.138;14.332;2023-02-05T04:32:56;100067.41;;;19.91;52.14
75717;BME280;64333;50.138;14.332;2023-02-05T04:35:22;100070.97;;;19.90;52.20
75717;BME280;64333;50.138;14.332;2023-02-05T04:37:47;100063.94;;;19.90;51.82
75717;BME280;64333;50.138;14.332;2023-02-05T04:40:12;100057.88;;;19.90;52.31
75717;BME280;64333;50.138;14.332;2023-02-05T04:42:38;100057.88;;;19.90;51.83
75717;BME280;64333;50.138;14.332;2023-02-05T04:45:04;100053.69;;;19.86;52.04
75717;BME280;64333;50.138;14.332;2023-02-05T04:47:30;100051.69;;;19.91;51.56
75717;BME280;64333;50.138;14.332;2023-02-05T04:49:56;100050.91;;;19.89;51.49
75717;BME280;64333;50.138;14.332;2023-02-05T04:52:21;100057.75;;;19.91;51.58
75717;BME280;64333;50.138;14.332;2023-02-05T04:54:47;100065.72;;;19.90;51.96
75717;BME280;64333;50.138;14.332;2023-02-05T04:57:12;100054.69;;;19.83;52.01
75717;BME280;64333;50.138;14.332;2023-02-05T04:59:37;100063.19;;;19.88;51.39
75717;BME280;64333;50.138;14.332;2023-02-05T05:02:03;100064.00;;;19.89;51.49
75717;BME280;64333;50.138;14.332;2023-02-05T05:04:28;100059.00;;;19.84;51.61
75717;BME280;64333;50.138;14.332;2023-02-05T05:06:53;100063.25;;;19.87;51.78
75717;BME280;64333;50.138;14.332;2023-02-05T05:09:19;100070.38;;;19.85;51.85
75717;BME280;64333;50.138;14.332;2023-02-05T05:11:51;100062.63;;;19.82;51.56
75717;BME280;64333;50.138;14.332;2023-02-05T05:14:16;100065.19;;;19.83;51.47
75717;BME280;64333;50.138;14.332;2023-02-05T05:16:42;100063.25;;;19.87;51.73
75717;BME280;64333;50.138;14.332;2023-02-05T05:19:07;100070.19;;;19.88;51.33
75717;BME280;64333;50.138;14.332;2023-02-05T05:21:32;100071.31;;;19.84;51.54
75717;BME280;64333;50.138;14.332;2023-02-05T05:23:58;100069.56;;;19.83;51.60
75717;BME280;64333;50.138;14.332;2023-02-05T05:26:23;100075.69;;;19.83;51.63
75717;BME280;64333;50.138;14.332;2023-02-05T05:28:55;100075.00;;;19.80;51.45
75717;BME280;64333;50.138;14.332;2023-02-05T05:31:20;100072.38;;;19.80;51.63
75717;BME280;64333;50.138;14.332;2023-02-05T05:33:46;100072.31;;;19.81;51.56
75717;BME280;64333;50.138;14.332;2023-02-05T05:36:12;100069.75;;;19.80;51.56
75717;BME280;64333;50.138;14.332;2023-02-05T05:38:38;100069.75;;;19.80;51.55
75717;BME280;64333;50.138;14.332;2023-02-05T05:41:04;100073.31;;;19.79;51.11
75717;BME280;64333;50.138;14.332;2023-02-05T05:43:51;100080.25;;;19.80;51.31
75717;BME280;64333;50.138;14.332;2023-02-05T05:46:22;100062.97;;;19.76;50.97
75717;BME280;64333;50.138;14.332;2023-02-05T05:48:49;100076.88;;;19.78;51.14
75717;BME280;64333;50.138;14.332;2023-02-05T05:51:15;100073.13;;;19.82;51.42
75717;BME280;64333;50.138;14.332;2023-02-05T05:53:41;100068.13;;;19.77;51.25
75717;BME280;64333;50.138;14.332;2023-02-05T05:56:06;100076.06;;;19.76;51.44
75717;BME280;64333;50.138;14.332;2023-02-05T05:58:42;100078.56;;;19.79;51.26
75717;BME280;64333;50.138;14.332;2023-02-05T06:01:10;100082.09;;;19.78;51.22
75717;BME280;64333;50.138;14.332;2023-02-05T06:03:36;100082.88;;;19.80;51.34
75717;BME280;64333;50.138;14.332;2023-02-05T06:06:05;100090.91;;;19.77;51.25
75717;BME280;64333;50.138;14.332;2023-02-05T06:08:31;100083.94;;;19.76;51.47
75717;BME280;64333;50.138;14.332;2023-02-05T06:10:58;100087.50;;;19.75;51.41
75717;BME280;64333;50.138;14.332;2023-02-05T06:13:23;100091.06;;;19.74;51.13
75717;BME280;64333;50.138;14.332;2023-02-05T06:15:49;100094.38;;;19.77;51.16
75717;BME280;64333;50.138;14.332;2023-02-05T06:18:15;100096.16;;;19.77;51.40
75717;BME280;64333;50.138;14.332;2023-02-05T06:20:41;100097.84;;;19.78;51.34
75717;BME280;64333;50.138;14.332;2023-02-05T06:23:06;100096.16;;;19.77;51.18
75717;BME280;64333;50.138;14.332;2023-02-05T06:25:32;100093.59;;;19.75;51.56
75717;BME280;64333;50.138;14.332;2023-02-05T06:27:57;100088.28;;;19.77;51.46
75717;BME280;64333;50.138;14.332;2023-02-05T06:30:22;100096.22;;;19.75;51.49
75717;BME280;64333;50.138;14.332;2023-02-05T06:32:48;100096.97;;;19.77;51.17
75717;BME280;64333;50.138;14.332;2023-02-05T06:35:14;100087.34;;;19.78;51.50
75717;BME280;64333;50.138;14.332;2023-02-05T06:37:39;100102.91;;;19.81;51.37
75717;BME280;64333;50.138;14.332;2023-02-05T06:40:04;100099.34;;;19.82;51.27
75717;BME280;64333;50.138;14.332;2023-02-05T06:42:30;100098.03;;;19.90;50.92
75717;BME280;64333;50.138;14.332;2023-02-05T06:44:55;100098.72;;;19.94;51.08
75717;BME280;64333;50.138;14.332;2023-02-05T06:47:21;100088.09;;;19.97;50.55
75717;BME280;64333;50.138;14.332;2023-02-05T06:49:46;100101.88;;;20.00;50.30
75717;BME280;64333;50.138;14.332;2023-02-05T06:52:11;100106.88;;;20.05;50.42
75717;BME280;64333;50.138;14.332;2023-02-05T06:54:37;100109.22;;;20.11;49.74
75717;BME280;64333;50.138;14.332;2023-02-05T06:57:03;100109.78;;;20.16;49.96
75717;BME280;64333;50.138;14.332;2023-02-05T06:59:28;100111.16;;;20.23;50.00
75717;BME280;64333;50.138;14.332;2023-02-05T07:01:54;100113.38;;;20.30;49.81
75717;BME280;64333;50.138;14.332;2023-02-05T07:04:19;100115.75;;;20.35;49.52
75717;BME280;64333;50.138;14.332;2023-02-05T07:06:44;100124.16;;;20.41;49.66
75717;BME280;64333;50.138;14.332;2023-02-05T07:09:10;100116.97;;;20.45;49.69
75717;BME280;64333;50.138;14.332;2023-02-05T07:11:35;100121.56;;;20.57;48.74
75717;BME280;64333;50.138;14.332;2023-02-05T07:14:01;100152.44;;;13.40;26.41
75717;BME280;64333;50.138;14.332;2023-02-05T07:16:27;100167.19;;;11.83;29.84
75717;BME280;64333;50.138;14.332;2023-02-05T07:18:53;100167.16;;;10.20;31.94
75717;BME280;64333;50.138;14.332;2023-02-05T07:21:18;100145.63;;;10.21;32.40
75717;BME280;64333;50.138;14.332;2023-02-05T07:23:44;100158.16;;;9.77;32.79
75717;BME280;64333;50.138;14.332;2023-02-05T07:26:11;100142.34;;;7.85;36.05
75717;BME280;64333;50.138;14.332;2023-02-05T07:28:38;100159.53;;;6.50;38.92
75717;BME280;64333;50.138;14.332;2023-02-05T07:31:08;100150.97;;;6.43;38.65
75717;BME280;64333;50.138;14.332;2023-02-05T07:33:34;100139.91;;;6.82;37.29
75717;BME280;64333;50.138;14.332;2023-02-05T07:36:05;100151.91;;;7.10;37.65
75717;BME280;64333;50.138;14.332;2023-02-05T07:38:31;100146.69;;;7.52;36.17
75717;BME280;64333;50.138;14.332;2023-02-05T07:40:56;100133.84;;;7.58;36.65
75717;BME280;64333;50.138;14.332;2023-02-05T07:43:22;100148.44;;;6.72;38.02
75717;BME280;64333;50.138;14.332;2023-02-05T07:45:55;100155.25;;;6.46;38.84
75717;BME280;64333;50.138;14.332;2023-02-05T07:48:20;100153.44;;;7.98;35.69
75717;BME280;64333;50.138;14.332;2023-02-05T07:50:46;100149.44;;;8.98;33.49
75717;BME280;64333;50.138;14.332;2023-02-05T07:53:12;100138.22;;;9.91;32.62
75717;BME280;64333;50.138;14.332;2023-02-05T07:55:37;100157.00;;;11.74;29.70
75717;BME280;64333;50.138;14.332;2023-02-05T07:58:02;100149.69;;;12.74;28.01
75717;BME280;64333;50.138;14.332;2023-02-05T08:00:28;100161.75;;;13.80;26.42
75717;BME280;64333;50.138;14.332;2023-02-05T08:02:53;100160.03;;;14.69;24.79
75717;BME280;64333;50.138;14.332;2023-02-05T08:05:18;100134.16;;;14.65;24.53
75717;BME280;64333;50.138;14.332;2023-02-05T08:07:45;100149.31;;;12.13;26.87
75717;BME280;64333;50.138;14.332;2023-02-05T08:10:13;100142.88;;;13.08;27.26
75717;BME280;64333;50.138;14.332;2023-02-05T08:12:39;100138.69;;;14.58;24.22
75717;BME280;64333;50.138;14.332;2023-02-05T08:15:04;100141.03;;;15.21;23.69
75717;BME280;64333;50.138;14.332;2023-02-05T08:17:30;100139.81;;;15.81;22.59
75717;BME280;64333;50.138;14.332;2023-02-05T08:19:55;100122.94;;;16.39;22.07
75717;BME280;64333;50.138;14.332;2023-02-05T08:22:21;100131.09;;;16.53;21.38
75717;BME280;64333;50.138;14.332;2023-02-05T08:24:46;100140.16;;;15.72;22.09
75717;BME280;64333;50.138;14.332;2023-02-05T08:27:11;100143.13;;;13.31;24.52
75717;BME280;64333;50.138;14.332;2023-02-05T08:29:37;100124.91;;;14.29;24.63
75717;BME280;64333;50.138;14.332;2023-02-05T08:32:02;100143.00;;;15.40;23.65
75717;BME280;64333;50.138;14.332;2023-02-05T08:34:28;100137.03;;;15.63;23.51
75717;BME280;64333;50.138;14.332;2023-02-05T08:36:53;100130.63;;;16.65;21.87
75717;BME280;64333;50.138;14.332;2023-02-05T08:39:19;100149.34;;;17.17;21.58
75717;BME280;64333;50.138;14.332;2023-02-05T08:41:44;100148.31;;;17.21;21.75
75717;BME280;64333;50.138;14.332;2023-02-05T08:44:09;100138.63;;;17.03;20.59
75717;BME280;64333;50.138;14.332;2023-02-05T08:46:35;100131.66;;;15.43;23.77
75717;BME280;64333;50.138;14.332;2023-02-05T08:49:03;100135.59;;;14.17;25.40
75717;BME280;64333;50.138;14.332;2023-02-05T08:51:28;100131.56;;;13.11;27.54
75717;BME280;64333;50.138;14.332;2023-02-05T08:53:54;100123.34;;;15.30;24.81
75717;BME280;64333;50.138;14.332;2023-02-05T08:56:20;100130.00;;;16.58;23.28
75717;BME280;64333;50.138;14.332;2023-02-05T08:58:46;100119.78;;;14.81;24.58
75717;BME280;64333;50.138;14.332;2023-02-05T09:01:14;100120.69;;;15.33;24.84
75717;BME280;64333;50.138;14.332;2023-02-05T09:03:41;100118.13;;;15.30;24.00
75717;BME280;64333;50.138;14.332;2023-02-05T09:06:09;100118.63;;;15.90;22.71
75717;BME280;64333;50.138;14.332;2023-02-05T09:08:35;100120.47;;;15.64;22.96
75717;BME280;64333;50.138;14.332;2023-02-05T09:11:01;100104.47;;;15.74;23.23
75717;BME280;64333;50.138;14.332;2023-02-05T09:13:26;100115.97;;;15.69;21.77
75717;BME280;64333;50.138;14.332;2023-02-05T09:15:52;100109.00;;;15.69;22.59
75717;BME280;64333;50.138;14.332;2023-02-05T09:18:18;100109.25;;;15.37;23.47
75717;BME280;64333;50.138;14.332;2023-02-05T09:20:45;100098.69;;;15.42;25.78
75717;BME280;64333;50.138;14.332;2023-02-05T09:23:12;100102.16;;;16.36;22.76
75717;BME280;64333;50.138;14.332;2023-02-05T09:25:39;100113.97;;;16.23;22.15
75717;BME280;64333;50.138;14.332;2023-02-05T09:28:06;100108.53;;;15.58;22.34
75717;BME280;64333;50.138;14.332;2023-02-05T09:30:35;100107.22;;;14.40;24.99
75717;BME280;64333;50.138;14.332;2023-02-05T09:33:01;100101.69;;;14.50;23.50
75717;BME280;64333;50.138;14.332;2023-02-05T09:35:26;100094.84;;;15.76;23.73
75717;BME280;64333;50.138;14.332;2023-02-05T09:37:52;100099.16;;;17.30;21.33
75717;BME280;64333;50.138;14.332;2023-02-05T09:40:22;100089.53;;;16.02;24.46
75717;BME280;64333;50.138;14.332;2023-02-05T09:45:53;100081.22;;;13.80;25.02
75717;BME280;64333;50.138;14.332;2023-02-05T09:48:44;100071.69;;;15.92;22.21
75717;BME280;64333;50.138;14.332;2023-02-05T09:51:18;100066.47;;;15.44;21.92
75717;BME280;64333;50.138;14.332;2023-02-05T09:53:50;100055.56;;;16.71;21.25
75717;BME280;64333;50.138;14.332;2023-02-05T09:56:17;100056.28;;;16.53;21.66
75717;BME280;64333;50.138;14.332;2023-02-05T09:58:45;100072.41;;;16.41;20.84
75717;BME280;64333;50.138;14.332;2023-02-05T10:01:22;100063.66;;;15.24;22.96
75717;BME280;64333;50.138;14.332;2023-02-05T10:03:58;100063.84;;;15.44;22.35
75717;BME280;64333;50.138;14.332;2023-02-05T10:06:40;100057.59;;;14.99;22.29
75717;BME280;64333;50.138;14.332;2023-02-05T10:15:18;100047.47;;;13.50;24.68
75717;BME280;64333;50.138;14.332;2023-02-05T10:34:09;100049.34;;;12.05;24.18
75717;BME280;64333;50.138;14.332;2023-02-05T10:36:41;100032.53;;;11.40;25.36
75717;BME280;64333;50.138;14.332;2023-02-05T10:39:13;100040.59;;;10.23;27.58
75717;BME280;64333;50.138;14.332;2023-02-05T10:41:51;100043.13;;;10.26;27.66
75717;BME280;64333;50.138;14.332;2023-02-05T10:46:49;100029.69;;;8.43;29.92
75717;BME280;64333;50.138;14.332;2023-02-05T10:49:23;100026.47;;;8.05;31.11
75717;BME280;64333;50.138;14.332;2023-02-05T10:51:50;100023.88;;;8.03;31.81
75717;BME280;64333;50.138;14.332;2023-02-05T10:54:31;100020.78;;;7.35;32.69
75717;BME280;64333;50.138;14.332;2023-02-05T10:56:58;100009.72;;;7.09;33.99
75717;BME280;64333;50.138;14.332;2023-02-05T10:59:28;100011.50;;;6.85;34.39
75717;BME280;64333;50.138;14.332;2023-02-05T11:01:56;100014.84;;;7.20;33.93
75717;BME280;64333;50.138;14.332;2023-02-05T11:04:48;99978.88;;;7.20;32.82
75717;BME280;64333;50.138;14.332;2023-02-05T11:07:34;99996.75;;;7.48;33.03
75717;BME280;64333;50.138;14.332;2023-02-05T11:12:37;99996.03;;;7.10;34.18
75717;BME280;64333;50.138;14.332;2023-02-05T11:15:03;99997.75;;;7.04;34.06
75717;BME280;64333;50.138;14.332;2023-02-05T11:17:35;100006.38;;;6.82;34.92
75717;BME280;64333;50.138;14.332;2023-02-05T11:22:39;99982.44;;;6.05;36.62
75717;BME280;64333;50.138;14.332;2023-02-05T11:25:20;100004.41;;;5.31;38.31
75717;BME280;64333;50.138;14.332;2023-02-05T11:27:54;99989.25;;;5.91;36.35
75717;BME280;64333;50.138;14.332;2023-02-05T11:30:28;99984.03;;;5.73;36.02
75717;BME280;64333;50.138;14.332;2023-02-05T11:32:55;99971.97;;;5.31;37.23
75717;BME280;64333;50.138;14.332;2023-02-05T11:35:22;99986.47;;;5.32;37.56
75717;BME280;64333;50.138;14.332;2023-02-05T11:38:53;99975.56;;;6.01;39.15
75717;BME280;64333;50.138;14.332;2023-02-05T11:43:45;99985.03;;;6.45;35.99
75717;BME280;64333;50.138;14.332;2023-02-05T11:46:16;99996.97;;;6.43;35.87
75717;BME280;64333;50.138;14.332;2023-02-05T11:49:00;99992.66;;;6.74;36.46
75717;BME280;64333;50.138;14.332;2023-02-05T11:54:11;99967.06;;;6.44;36.41
75717;BME280;64333;50.138;14.332;2023-02-05T11:56:40;99989.28;;;6.07;37.81
75717;BME280;64333;50.138;14.332;2023-02-05T11:59:24;99981.56;;;6.66;36.31
75717;BME280;64333;50.138;14.332;2023-02-05T12:01:50;99986.47;;;7.48;34.51
75717;BME280;64333;50.138;14.332;2023-02-05T12:04:18;99988.31;;;7.19;34.05
75717;BME280;64333;50.138;14.332;2023-02-05T12:09:21;99982.94;;;7.67;32.96
75717;BME280;64333;50.138;14.332;2023-02-05T12:11:50;99997.44;;;9.69;30.48
75717;BME280;64333;50.138;14.332;2023-02-05T12:19:57;99988.97;;;12.03;26.29
75717;BME280;64333;50.138;14.332;2023-02-05T12:33:22;99975.00;;;13.71;24.52
75717;BME280;64333;50.138;14.332;2023-02-05T12:41:32;99964.41;;;10.96;27.90
75717;BME280;64333;50.138;14.332;2023-02-05T12:46:55;99956.25;;;11.97;26.35
75717;BME280;64333;50.138;14.332;2023-02-05T12:49:34;99962.59;;;12.89;26.01
75717;BME280;64333;50.138;14.332;2023-02-05T12:57:49;99959.25;;;13.48;24.58
75717;BME280;64333;50.138;14.332;2023-02-05T13:00:22;99961.31;;;13.05;24.89
75717;BME280;64333;50.138;14.332;2023-02-05T13:05:23;99959.84;;;11.92;27.41
75717;BME280;64333;50.138;14.332;2023-02-05T13:10:29;99962.41;;;14.14;23.73
75717;BME280;64333;50.138;14.332;2023-02-05T13:13:02;99956.19;;;11.62;27.91
75717;BME280;64333;50.138;14.332;2023-02-05T13:15:41;99961.41;;;12.35;26.38
75717;BME280;64333;50.138;14.332;2023-02-05T13:18:28;99945.38;;;13.49;25.01
75717;BME280;64333;50.138;14.332;2023-02-05T13:20:58;99952.28;;;13.79;24.01
75717;BME280;64333;50.138;14.332;2023-02-05T13:23:44;99964.16;;;13.57;23.58
75717;BME280;64333;50.138;14.332;2023-02-05T13:26:38;99951.66;;;13.99;23.66
75717;BME280;64333;50.138;14.332;2023-02-05T13:29:25;99959.66;;;14.72;22.39
75717;BME280;64333;50.138;14.332;2023-02-05T13:31:59;99957.09;;;14.46;22.59
75717;BME280;64333;50.138;14.332;2023-02-05T13:34:28;99952.97;;;14.39;22.50
75717;BME280;64333;50.138;14.332;2023-02-05T13:58:53;99936.94;;;5.36;37.03
75717;BME280;64333;50.138;14.332;2023-02-05T14:01:26;99933.59;;;5.57;37.31
75717;BME280;64333;50.138;14.332;2023-02-05T14:03:58;99926.69;;;5.30;37.78
75717;BME280;64333;50.138;14.332;2023-02-05T14:06:29;99939.09;;;4.51;38.88
75717;BME280;64333;50.138;14.332;2023-02-05T14:09:05;99932.81;;;4.09;40.42
75717;BME280;64333;50.138;14.332;2023-02-05T14:11:54;99930.59;;;4.57;39.48
75717;BME280;64333;50.138;14.332;2023-02-05T14:14:32;99938.81;;;4.12;40.37
75717;BME280;64333;50.138;14.332;2023-02-05T14:22:42;99946.97;;;3.75;40.99
75717;BME280;64333;50.138;14.332;2023-02-05T14:30:52;99925.91;;;3.15;42.27
75717;BME280;64333;50.138;14.332;2023-02-05T14:33:41;99932.88;;;2.63;43.73
75717;BME280;64333;50.138;14.332;2023-02-05T14:38:57;99936.06;;;3.09;42.12
75717;BME280;64333;50.138;14.332;2023-02-05T14:41:28;99935.00;;;2.34;44.45
75717;BME280;64333;50.138;14.332;2023-02-05T14:44:04;99927.03;;;2.13;45.46
75717;BME280;64333;50.138;14.332;2023-02-05T14:46:35;99934.66;;;2.10;45.62
75717;BME280;64333;50.138;14.332;2023-02-05T14:49:06;99941.16;;;1.93;47.03
75717;BME280;64333;50.138;14.332;2023-02-05T14:51:38;99940.97;;;1.83;48.02
75717;BME280;64333;50.138;14.332;2023-02-05T14:56:39;99940.34;;;1.48;48.44
75717;BME280;64333;50.138;14.332;2023-02-05T14:59:37;99956.72;;;1.16;49.67
75717;BME280;64333;50.138;14.332;2023-02-05T15:05:07;99960.97;;;0.79;50.21
75717;BME280;64333;50.138;14.332;2023-02-05T15:07:38;99956.41;;;0.63;50.54
75717;BME280;64333;50.138;14.332;2023-02-05T15:10:06;99950.44;;;0.62;52.01
75717;BME280;64333;50.138;14.332;2023-02-05T15:16:17;99930.56;;;0.45;54.79
75717;BME280;64333;50.138;14.332;2023-02-05T15:18:54;99924.50;;;0.38;55.15